Time;durP1;ratioP1;P1;durP2;ratioP2;P2;SDS_P1;SDS_P2;PMS_P1;PMS_P2;Temp;Humidity;BMP_temperature;BMP_pressure;BME280_temperature;BME280_humidity;BME280_pressure;Samples;Min_cycle;Max_cycle;Signal;HPM_P1;HPM_P2
2023/02/10 00:02:25;;;;;;;21.33;6.07;;;1.40;99.90;;;;;;5041598;28;20531;-73
2023/02/10 00:04:50;;;;;;;16.05;6.35;;;1.40;99.90;;;;;;5042688;28;20033;-72
2023/02/10 00:07:17;;;;;;;13.57;7.20;;;1.30;99.90;;;;;;5038455;28;20405;-73
2023/02/10 00:09:43;;;;;;;20.33;7.93;;;1.30;99.90;;;;;;5042188;28;20128;-71
2023/02/10 00:12:09;;;;;;;20.58;7.20;;;1.30;99.90;;;;;;5038716;28;20119;-72
2023/02/10 00:14:35;;;;;;;18.65;7.07;;;1.30;99.90;;;;;;5051769;28;20033;-74
2023/02/10 00:17:01;;;;;;;14.10;5.85;;;1.30;99.90;;;;;;5038844;28;20036;-73
2023/02/10 00:19:28;;;;;;;13.23;6.28;;;1.20;99.90;;;;;;5052710;28;20041;-72
2023/02/10 00:21:54;;;;;;;22.48;6.85;;;1.20;99.90;;;;;;5041891;28;20064;-70
2023/02/10 00:24:21;;;;;;;20.73;7.03;;;1.20;99.90;;;;;;5038368;28;20490;-72
2023/02/10 00:26:46;;;;;;;13.35;6.47;;;1.20;99.90;;;;;;5044936;28;20038;-73
2023/02/10 00:29:13;;;;;;;22.63;7.40;;;1.10;99.90;;;;;;5040115;28;20033;-73
2023/02/10 00:31:39;;;;;;;18.30;5.75;;;1.10;99.90;;;;;;5040999;28;20044;-71
2023/02/10 00:34:04;;;;;;;24.17;7.57;;;1.10;99.90;;;;;;5040431;28;20036;-74
2023/02/10 00:36:30;;;;;;;18.45;5.85;;;1.10;99.90;;;;;;5032860;28;20049;-73
2023/02/10 00:38:55;;;;;;;18.52;7.00;;;1.10;99.90;;;;;;5041787;28;20032;-73
2023/02/10 00:41:22;;;;;;;14.35;6.60;;;1.20;99.90;;;;;;5038985;28;20103;-74
2023/02/10 00:43:48;;;;;;;15.90;6.45;;;1.20;99.90;;;;;;5038832;28;20033;-74
2023/02/10 00:46:16;;;;;;;15.57;6.30;;;1.20;99.90;;;;;;5039319;28;20087;-73
2023/02/10 00:48:43;;;;;;;14.20;7.25;;;1.20;99.90;;;;;;5036257;28;20026;-73
2023/02/10 00:51:09;;;;;;;14.48;5.75;;;1.20;99.90;;;;;;5038784;28;20103;-74
2023/02/10 00:53:35;;;;;;;17.25;6.22;;;1.20;99.90;;;;;;5039637;28;20045;-73
2023/02/10 00:56:00;;;;;;;12.40;5.85;;;1.20;99.90;;;;;;5037725;28;20036;-71
2023/02/10 00:58:26;;;;;;;18.23;6.50;;;1.20;99.90;;;;;;5041724;28;20047;-72
2023/02/10 01:00:53;;;;;;;26.55;6.68;;;1.20;99.90;;;;;;5040501;28;20040;-71
2023/02/10 01:03:19;;;;;;;14.02;5.85;;;1.20;99.90;;;;;;5037484;28;20038;-73
2023/02/10 01:05:45;;;;;;;15.80;5.53;;;1.30;99.90;;;;;;5039866;28;20037;-72
2023/02/10 01:08:12;;;;;;;16.45;5.38;;;1.20;99.90;;;;;;5041672;28;20374;-72
2023/02/10 01:10:37;;;;;;;21.52;6.75;;;1.30;99.90;;;;;;5041651;28;20398;-73
2023/02/10 01:13:05;;;;;;;11.63;5.28;;;1.30;99.90;;;;;;5038400;28;20154;-74
2023/02/10 01:15:31;;;;;;;22.45;6.20;;;1.30;99.90;;;;;;5034017;28;20048;-73
2023/02/10 01:17:57;;;;;;;21.70;6.68;;;1.30;99.90;;;;;;5036860;28;20060;-73
2023/02/10 01:20:23;;;;;;;18.35;6.90;;;1.20;99.90;;;;;;5038609;28;20497;-74
2023/02/10 01:22:49;;;;;;;15.90;5.65;;;1.20;99.90;;;;;;5051985;28;20065;-73
2023/02/10 01:25:14;;;;;;;22.10;6.40;;;1.20;99.90;;;;;;5039670;28;20083;-73
2023/02/10 01:27:40;;;;;;;14.43;6.00;;;1.10;99.90;;;;;;5041878;28;20082;-73
2023/02/10 01:30:06;;;;;;;16.33;6.25;;;1.10;99.90;;;;;;5038824;28;20078;-72
2023/02/10 01:32:31;;;;;;;16.45;6.35;;;1.10;99.90;;;;;;5034822;28;20525;-72
2023/02/10 01:34:57;;;;;;;12.65;5.78;;;1.10;99.90;;;;;;5035092;28;20481;-73
2023/02/10 01:37:23;;;;;;;15.13;5.57;;;1.10;99.90;;;;;;5039917;28;20052;-73
2023/02/10 01:39:48;;;;;;;15.00;5.72;;;1.10;99.90;;;;;;5040494;28;20033;-72
2023/02/10 01:42:15;;;;;;;14.52;6.03;;;1.00;99.90;;;;;;5039881;28;20052;-72
2023/02/10 01:44:41;;;;;;;17.25;6.80;;;1.00;99.90;;;;;;5036627;28;20381;-72
2023/02/10 01:47:07;;;;;;;16.80;7.20;;;1.00;99.90;;;;;;5037869;28;20041;-72
2023/02/10 01:49:39;;;;;;;16.83;6.18;;;1.00;99.90;;;;;;5036088;28;20048;-72
2023/02/10 01:52:19;;;;;;;13.70;5.68;;;1.00;99.90;;;;;;5034108;28;20091;-72
2023/02/10 01:54:52;;;;;;;20.55;7.00;;;1.00;99.90;;;;;;5037258;28;20036;-72
2023/02/10 01:57:18;;;;;;;22.00;6.82;;;1.00;99.90;;;;;;5040619;28;20041;-72
2023/02/10 01:59:44;;;;;;;22.98;6.70;;;1.00;99.90;;;;;;5040653;28;20187;-72
2023/02/10 02:02:12;;;;;;;13.77;5.65;;;1.00;99.90;;;;;;5037229;28;20570;-72
2023/02/10 02:04:50;;;;;;;20.73;6.25;;;0.90;99.90;;;;;;5038924;28;20049;-72
2023/02/10 02:09:44;;;;;;;19.92;6.97;;;0.80;99.90;;;;;;5007679;28;20104;-72
2023/02/10 02:12:19;;;;;;;22.05;7.18;;;0.80;99.90;;;;;;5003706;28;20042;-72
2023/02/10 02:14:53;;;;;;;20.42;7.40;;;0.80;99.90;;;;;;4996218;28;20030;-72
2023/02/10 02:17:35;;;;;;;19.52;6.53;;;0.80;99.90;;;;;;4996755;28;20027;-72
2023/02/10 02:20:40;;;;;;;25.73;7.43;;;0.80;99.90;;;;;;4997211;28;20049;-72
2023/02/10 02:23:10;;;;;;;16.73;6.93;;;0.80;99.90;;;;;;4996057;28;20069;-72
2023/02/10 02:26:07;;;;;;;18.27;7.82;;;0.80;99.90;;;;;;4975746;28;20070;-72
2023/02/10 02:28:50;;;;;;;18.08;7.00;;;0.80;99.90;;;;;;4987357;28;20031;-72
2023/02/10 02:31:48;;;;;;;21.10;7.95;;;0.80;99.90;;;;;;4998971;28;20054;-72
2023/02/10 02:34:16;;;;;;;14.95;6.72;;;0.90;99.90;;;;;;4957637;28;20045;-72
2023/02/10 02:36:49;;;;;;;16.52;7.85;;;0.90;99.90;;;;;;4975019;28;20035;-72
2023/02/10 02:39:14;;;;;;;18.85;7.72;;;0.90;99.90;;;;;;4971075;28;20038;-72
2023/02/10 02:41:40;;;;;;;20.35;7.60;;;0.90;99.90;;;;;;4953809;28;20132;-71
2023/02/10 02:44:06;;;;;;;16.73;6.25;;;0.90;99.90;;;;;;4958689;28;20050;-72
2023/02/10 02:47:05;;;;;;;18.25;7.57;;;0.90;99.90;;;;;;4953614;28;20052;-71
2023/02/10 02:50:12;;;;;;;22.35;7.78;;;0.90;99.90;;;;;;4984058;28;20807;-72
2023/02/10 02:53:04;;;;;;;23.75;7.78;;;0.90;99.90;;;;;;4993425;28;20046;-72
2023/02/10 02:55:52;;;;;;;21.33;7.80;;;0.90;99.90;;;;;;4988084;28;20027;-73
2023/02/10 02:58:28;;;;;;;21.88;8.13;;;0.90;99.90;;;;;;4991403;28;20498;-72
2023/02/10 03:00:57;;;;;;;25.77;8.32;;;0.90;99.90;;;;;;4998324;28;20037;-71
2023/02/10 03:03:23;;;;;;;31.27;10.18;;;1.00;99.90;;;;;;4998037;28;20038;-72
2023/02/10 03:05:48;;;;;;;22.83;9.00;;;1.00;99.90;;;;;;4973686;28;20452;-72
2023/02/10 03:08:14;;;;;;;19.83;8.52;;;1.00;99.90;;;;;;4997712;28;20038;-72
2023/02/10 03:10:39;;;;;;;30.08;9.63;;;1.00;99.90;;;;;;4989952;28;20042;-71
2023/02/10 03:13:05;;;;;;;22.77;10.13;;;1.00;99.90;;;;;;4989522;28;20137;-72
2023/02/10 03:15:30;;;;;;;28.85;9.80;;;1.00;99.90;;;;;;4992732;28;20117;-72
2023/02/10 03:17:56;;;;;;;28.42;9.95;;;1.00;99.90;;;;;;4978369;28;20039;-73
2023/02/10 03:20:22;;;;;;;26.42;9.48;;;1.00;99.90;;;;;;4994724;28;20031;-73
2023/02/10 03:22:47;;;;;;;28.52;9.73;;;1.00;99.90;;;;;;4980887;28;20034;-72
2023/02/10 03:25:13;;;;;;;27.92;9.57;;;1.00;99.90;;;;;;4984152;28;20094;-72
2023/02/10 03:27:39;;;;;;;27.00;9.95;;;1.00;99.90;;;;;;4993835;28;20030;-72
2023/02/10 03:30:05;;;;;;;23.17;10.15;;;0.90;99.90;;;;;;4978375;28;20062;-72
2023/02/10 03:32:30;;;;;;;31.00;11.10;;;1.00;99.90;;;;;;4989712;28;20058;-72
2023/02/10 03:34:56;;;;;;;25.17;10.15;;;0.90;99.90;;;;;;4979584;28;20118;-72
2023/02/10 03:37:21;;;;;;;24.30;9.65;;;0.90;99.90;;;;;;4994064;28;20088;-72
2023/02/10 03:39:47;;;;;;;21.45;9.10;;;1.00;99.90;;;;;;5000582;28;20034;-72
2023/02/10 03:42:12;;;;;;;23.23;9.65;;;1.00;99.90;;;;;;4974069;28;20128;-71
2023/02/10 03:44:38;;;;;;;29.38;10.98;;;1.00;99.90;;;;;;5003658;28;20560;-72
2023/02/10 03:47:04;;;;;;;27.65;10.43;;;1.00;99.90;;;;;;4989144;28;20121;-72
2023/02/10 03:49:29;;;;;;;29.52;10.57;;;1.00;99.90;;;;;;4985686;28;20077;-71
2023/02/10 03:51:55;;;;;;;24.88;9.55;;;0.90;99.90;;;;;;4999229;28;20061;-72
2023/02/10 03:54:21;;;;;;;31.65;11.07;;;0.90;99.90;;;;;;5002090;28;20029;-73
2023/02/10 03:56:46;;;;;;;25.90;9.77;;;0.90;99.90;;;;;;4972405;28;20033;-71
2023/02/10 03:59:14;;;;;;;27.58;10.00;;;0.90;99.90;;;;;;4988782;28;20034;-71
2023/02/10 04:01:40;;;;;;;23.95;9.38;;;0.90;99.90;;;;;;4981121;28;20065;-72
2023/02/10 04:04:06;;;;;;;24.02;9.95;;;0.90;99.90;;;;;;4992807;28;20448;-73
2023/02/10 04:06:31;;;;;;;25.83;10.35;;;0.90;99.90;;;;;;5004953;28;20030;-72
2023/02/10 04:08:57;;;;;;;36.22;10.60;;;0.90;99.90;;;;;;4985908;28;20122;-73
2023/02/10 04:11:22;;;;;;;23.63;9.18;;;0.90;99.90;;;;;;5003603;28;20023;-73
2023/02/10 04:13:48;;;;;;;26.23;11.32;;;0.90;99.90;;;;;;4977458;28;20072;-72
2023/02/10 04:16:15;;;;;;;24.27;10.93;;;0.90;99.90;;;;;;5004756;28;20387;-72
2023/02/10 04:18:41;;;;;;;27.95;10.85;;;0.90;99.90;;;;;;4986906;28;20056;-72
2023/02/10 04:21:09;;;;;;;26.02;10.85;;;0.90;99.90;;;;;;4991082;28;20026;-72
2023/02/10 04:23:35;;;;;;;25.90;9.30;;;0.90;99.90;;;;;;4988713;28;20034;-71
2023/02/10 04:26:01;;;;;;;28.60;11.45;;;0.90;99.90;;;;;;4996670;28;20037;-72
2023/02/10 04:28:27;;;;;;;30.65;10.85;;;0.90;99.90;;;;;;4980496;28;20034;-72
2023/02/10 04:30:55;;;;;;;28.85;12.02;;;0.90;99.90;;;;;;4976376;28;20049;-72
2023/02/10 04:33:21;;;;;;;24.33;10.05;;;0.80;99.90;;;;;;5015467;28;20143;-72
2023/02/10 04:35:51;;;;;;;31.00;11.70;;;0.80;99.90;;;;;;4991217;28;20030;-72
2023/02/10 04:38:17;;;;;;;30.15;10.55;;;0.80;99.90;;;;;;4974573;28;20041;-72
2023/02/10 04:40:46;;;;;;;28.42;11.10;;;0.80;99.90;;;;;;4986449;28;20034;-71
2023/02/10 04:43:14;;;;;;;27.70;11.02;;;0.80;99.90;;;;;;4980534;28;20033;-72
2023/02/10 04:45:40;;;;;;;27.38;11.07;;;0.80;99.90;;;;;;4979510;28;20030;-72
2023/02/10 04:48:06;;;;;;;28.75;10.23;;;0.80;99.90;;;;;;4997019;28;20042;-71
2023/02/10 04:50:32;;;;;;;30.45;11.07;;;0.80;99.90;;;;;;4995491;28;20034;-71
2023/02/10 04:52:57;;;;;;;23.02;10.30;;;0.80;99.90;;;;;;4988238;28;20058;-72
2023/02/10 04:55:23;;;;;;;29.33;11.10;;;0.80;99.90;;;;;;4988052;28;20038;-72
2023/02/10 04:57:49;;;;;;;27.42;10.77;;;0.80;99.90;;;;;;4987388;28;20026;-72
2023/02/10 05:00:15;;;;;;;28.13;11.18;;;0.80;99.90;;;;;;4994368;28;20042;-72
2023/02/10 05:02:41;;;;;;;29.52;11.93;;;0.80;99.90;;;;;;4995575;28;20030;-72
2023/02/10 05:05:07;;;;;;;28.60;11.15;;;0.80;99.90;;;;;;4996586;28;20034;-72
2023/02/10 05:07:32;;;;;;;31.30;11.30;;;0.80;99.90;;;;;;5007703;28;20034;-71
2023/02/10 05:09:58;;;;;;;28.40;11.77;;;0.80;99.90;;;;;;4993496;28;20050;-72
2023/02/10 05:12:23;;;;;;;25.33;10.95;;;0.70;99.90;;;;;;4992916;28;20038;-72
2023/02/10 05:14:49;;;;;;;26.17;10.80;;;0.70;99.90;;;;;;4988427;28;20513;-72
2023/02/10 05:17:15;;;;;;;26.95;11.18;;;0.70;99.90;;;;;;4978436;28;20169;-72
2023/02/10 05:19:41;;;;;;;29.70;11.50;;;0.70;99.90;;;;;;4987627;28;20034;-72
2023/02/10 05:22:06;;;;;;;31.02;11.98;;;0.70;99.90;;;;;;4981412;28;20041;-72
2023/02/10 05:24:32;;;;;;;29.67;12.18;;;0.70;99.90;;;;;;4983715;28;20027;-72
2023/02/10 05:26:57;;;;;;;31.15;11.73;;;0.70;99.90;;;;;;4986962;28;20030;-72
2023/02/10 05:29:23;;;;;;;30.27;11.35;;;0.70;99.90;;;;;;4987735;28;20037;-73
2023/02/10 05:31:49;;;;;;;31.92;12.10;;;0.70;99.90;;;;;;4988022;28;20046;-72
2023/02/10 05:34:14;;;;;;;28.67;11.63;;;0.70;99.90;;;;;;4987289;28;20048;-71
2023/02/10 05:36:40;;;;;;;34.13;10.68;;;0.70;99.90;;;;;;4975992;28;20395;-72
2023/02/10 05:39:24;;;;;;;26.67;11.25;;;0.70;99.90;;;;;;4990103;28;20372;-74
2023/02/10 05:41:54;;;;;;;25.27;10.65;;;0.70;99.90;;;;;;4967735;28;20038;-73
2023/02/10 05:44:20;;;;;;;35.00;12.38;;;0.70;99.90;;;;;;4985668;28;20034;-74
2023/02/10 05:46:46;;;;;;;30.15;12.15;;;0.70;99.90;;;;;;4995747;28;20069;-73
2023/02/10 05:49:11;;;;;;;29.45;11.82;;;0.70;99.90;;;;;;4979457;28;20593;-72
2023/02/10 05:51:37;;;;;;;36.22;12.27;;;0.70;99.90;;;;;;4985163;28;20506;-73
2023/02/10 05:54:03;;;;;;;31.92;12.73;;;0.80;99.90;;;;;;4988674;28;20538;-73
2023/02/10 05:56:28;;;;;;;30.60;11.93;;;0.80;99.90;;;;;;4975595;28;20026;-74
2023/02/10 05:58:54;;;;;;;33.13;11.35;;;0.80;99.90;;;;;;4989982;28;20494;-73
2023/02/10 06:01:20;;;;;;;36.45;11.85;;;0.80;99.90;;;;;;4996776;28;20032;-72
2023/02/10 06:03:46;;;;;;;32.08;11.45;;;0.80;99.90;;;;;;4990830;28;20026;-73
2023/02/10 06:06:11;;;;;;;31.17;11.55;;;0.80;99.90;;;;;;4993222;28;20102;-73
2023/02/10 06:08:37;;;;;;;31.50;11.70;;;0.80;99.90;;;;;;4999337;28;20418;-74
2023/02/10 06:11:03;;;;;;;31.17;11.90;;;0.80;99.90;;;;;;4993613;28;20045;-73
2023/02/10 06:13:28;;;;;;;27.40;11.25;;;0.80;99.90;;;;;;4996748;28;20670;-74
2023/02/10 06:15:54;;;;;;;30.52;11.02;;;0.70;99.90;;;;;;4976517;28;20054;-73
2023/02/10 06:18:19;;;;;;;25.00;10.95;;;0.80;99.90;;;;;;4981793;28;20076;-73
2023/02/10 06:20:46;;;;;;;25.58;10.98;;;0.80;99.90;;;;;;4984415;28;20038;-71
2023/02/10 06:23:12;;;;;;;30.08;10.82;;;0.80;99.90;;;;;;4989981;28;21316;-72
2023/02/10 06:25:38;;;;;;;27.80;10.07;;;0.70;99.90;;;;;;4992213;28;20110;-71
2023/02/10 06:28:04;;;;;;;30.25;11.10;;;0.70;99.90;;;;;;4989742;28;20034;-73
2023/02/10 06:30:30;;;;;;;23.90;10.93;;;0.70;99.90;;;;;;4995840;28;20479;-72
2023/02/10 06:32:55;;;;;;;24.38;9.57;;;0.70;99.90;;;;;;4992751;28;20034;-72
2023/02/10 06:35:21;;;;;;;27.25;10.02;;;0.60;99.90;;;;;;5002432;28;20026;-72
2023/02/10 06:37:47;;;;;;;26.85;9.52;;;0.60;99.90;;;;;;5002271;28;20030;-71
2023/02/10 06:40:13;;;;;;;24.73;10.18;;;0.60;99.90;;;;;;4998797;28;20031;-73
2023/02/10 06:42:39;;;;;;;28.10;10.02;;;0.60;99.90;;;;;;4977599;28;20120;-73
2023/02/10 06:45:05;;;;;;;23.27;9.63;;;0.60;99.90;;;;;;4980815;28;20481;-72
2023/02/10 06:47:30;;;;;;;21.80;8.93;;;0.60;99.90;;;;;;4998957;28;20038;-71
2023/02/10 06:49:56;;;;;;;22.35;9.90;;;0.60;99.90;;;;;;4994934;28;20030;-73
2023/02/10 06:52:24;;;;;;;22.17;10.30;;;0.60;99.90;;;;;;5002071;28;20030;-72
2023/02/10 06:54:50;;;;;;;25.08;10.77;;;0.60;99.90;;;;;;4996311;28;20045;-71
2023/02/10 06:57:15;;;;;;;23.30;7.72;;;0.60;99.90;;;;;;4969562;28;20034;-72
2023/02/10 06:59:41;;;;;;;16.75;7.95;;;0.60;99.90;;;;;;4972676;28;20627;-72
2023/02/10 07:02:10;;;;;;;19.80;9.52;;;0.50;99.90;;;;;;4990323;28;20500;-72
2023/02/10 07:04:35;;;;;;;17.45;7.88;;;0.50;99.90;;;;;;4996919;28;20079;-72
2023/02/10 07:07:01;;;;;;;14.27;7.15;;;0.50;99.90;;;;;;5001241;28;20037;-72
2023/02/10 07:09:27;;;;;;;19.50;8.55;;;0.50;99.90;;;;;;4978526;28;20031;-72
2023/02/10 07:11:52;;;;;;;19.80;8.13;;;0.50;99.90;;;;;;4990435;28;20031;-72
2023/02/10 07:14:18;;;;;;;19.58;8.57;;;0.50;99.90;;;;;;4993763;28;20040;-72
2023/02/10 07:16:43;;;;;;;17.10;7.80;;;0.60;99.90;;;;;;4998075;28;20026;-71
2023/02/10 07:19:09;;;;;;;17.35;8.23;;;0.60;99.90;;;;;;4990003;28;20049;-71
2023/02/10 07:21:35;;;;;;;21.77;7.88;;;0.70;99.90;;;;;;4989518;28;20368;-72
2023/02/10 07:24:01;;;;;;;17.00;7.72;;;0.70;99.90;;;;;;4989762;28;20038;-72
2023/02/10 07:26:27;;;;;;;14.35;7.07;;;0.70;99.90;;;;;;4984522;28;20816;-72
2023/02/10 07:28:53;;;;;;;17.40;7.45;;;0.70;99.90;;;;;;4980662;28;20026;-72
2023/02/10 07:31:18;;;;;;;19.38;8.07;;;0.70;99.90;;;;;;4996506;28;20113;-71
2023/02/10 07:33:44;;;;;;;14.95;6.30;;;0.80;99.90;;;;;;4989357;28;20034;-72
2023/02/10 07:36:09;;;;;;;15.75;7.47;;;0.80;99.90;;;;;;4989214;28;20360;-71
2023/02/10 07:38:35;;;;;;;13.55;6.68;;;0.80;99.90;;;;;;4972030;28;20111;-72
2023/02/10 07:41:01;;;;;;;14.02;6.72;;;0.80;99.90;;;;;;4979788;28;20033;-72
2023/02/10 07:43:27;;;;;;;13.63;6.18;;;0.80;99.90;;;;;;4989625;28;20064;-72
2023/02/10 07:45:53;;;;;;;14.55;7.38;;;0.90;99.90;;;;;;4993379;28;20038;-71
2023/02/10 07:48:18;;;;;;;15.07;7.45;;;0.90;99.90;;;;;;4989505;28;20118;-72
2023/02/10 07:50:46;;;;;;;13.07;6.53;;;0.90;99.90;;;;;;5005189;28;20034;-71
2023/02/10 07:53:12;;;;;;;16.23;6.75;;;1.00;99.90;;;;;;4990396;28;20057;-72
2023/02/10 07:55:37;;;;;;;13.65;6.88;;;0.90;99.90;;;;;;4993507;28;20057;-73
2023/02/10 07:58:04;;;;;;;15.95;7.63;;;1.00;99.90;;;;;;4999275;28;20030;-72
2023/02/10 08:00:30;;;;;;;15.00;6.78;;;0.90;99.90;;;;;;4996338;28;20084;-71
2023/02/10 08:02:55;;;;;;;14.77;7.45;;;1.00;99.90;;;;;;5000601;28;20038;-71
2023/02/10 08:05:21;;;;;;;20.10;7.03;;;1.00;99.90;;;;;;4988874;28;20137;-72
2023/02/10 08:07:47;;;;;;;17.65;8.25;;;0.90;99.90;;;;;;4979619;28;20027;-73
2023/02/10 08:10:13;;;;;;;16.27;7.30;;;0.90;99.90;;;;;;4997000;28;20044;-71
2023/02/10 08:12:39;;;;;;;15.30;7.30;;;0.90;99.90;;;;;;5003319;28;20092;-71
2023/02/10 08:15:06;;;;;;;17.10;7.78;;;0.90;99.90;;;;;;4992634;28;20069;-72
2023/02/10 08:17:32;;;;;;;15.18;7.97;;;0.90;99.90;;;;;;4992507;28;20136;-71
2023/02/10 08:19:57;;;;;;;18.77;7.72;;;0.90;99.90;;;;;;4999466;28;20129;-73
2023/02/10 08:22:23;;;;;;;16.38;7.25;;;0.90;99.90;;;;;;5008379;28;20072;-73
2023/02/10 08:24:49;;;;;;;21.00;9.40;;;1.00;99.90;;;;;;4976839;28;20042;-72
2023/02/10 08:27:14;;;;;;;15.70;7.43;;;1.00;99.90;;;;;;4998110;28;20043;-72
2023/02/10 08:29:40;;;;;;;19.20;8.68;;;1.10;99.90;;;;;;4988815;28;20034;-72
2023/02/10 08:32:05;;;;;;;18.02;7.57;;;1.10;99.90;;;;;;4996846;28;20406;-72
2023/02/10 08:34:31;;;;;;;20.20;9.07;;;1.10;99.90;;;;;;5002122;28;20116;-72
2023/02/10 08:36:57;;;;;;;18.48;8.13;;;1.20;99.90;;;;;;4987991;28;20030;-73
2023/02/10 08:39:22;;;;;;;18.88;8.18;;;1.30;99.90;;;;;;4975645;28;20076;-72
2023/02/10 08:41:48;;;;;;;21.25;8.85;;;1.30;99.90;;;;;;4972871;28;20464;-72
2023/02/10 08:44:14;;;;;;;19.70;9.00;;;1.40;99.90;;;;;;4994443;28;20041;-72
2023/02/10 08:46:40;;;;;;;17.08;7.25;;;1.50;99.90;;;;;;4982051;28;20368;-72
2023/02/10 08:49:06;;;;;;;18.98;8.55;;;1.60;99.90;;;;;;4988682;28;20038;-72
2023/02/10 08:51:32;;;;;;;21.52;8.38;;;1.70;99.90;;;;;;4972477;28;20482;-72
2023/02/10 08:54:03;;;;;;;19.63;8.43;;;1.70;99.90;;;;;;4982661;28;20137;-72
2023/02/10 08:56:28;;;;;;;19.20;8.68;;;1.90;99.90;;;;;;4987841;28;20482;-72
2023/02/10 08:58:54;;;;;;;21.30;9.60;;;1.90;99.90;;;;;;4970105;28;20034;-71
2023/02/10 09:01:25;;;;;;;24.23;9.27;;;2.00;99.90;;;;;;5005243;28;20029;-73
2023/02/10 09:03:51;;;;;;;;;;;2.00;99.90;;;;;;5005017;28;20126;-71
2023/02/10 09:06:20;;;;;;;20.38;8.60;;;2.20;99.90;;;;;;4990010;28;19921;-71
2023/02/10 09:08:47;;;;;;;21.52;8.73;;;2.20;99.90;;;;;;4995524;28;20517;-72
2023/02/10 09:11:14;;;;;;;17.15;8.55;;;2.20;99.90;;;;;;4987266;28;20151;-72
2023/02/10 09:13:40;;;;;;;18.00;8.80;;;2.30;99.90;;;;;;5001232;28;20076;-73
2023/02/10 09:16:06;;;;;;;23.38;9.30;;;2.40;99.90;;;;;;4978544;28;20042;-72
2023/02/10 09:18:31;;;;;;;20.42;9.68;;;2.40;99.90;;;;;;4986939;28;20042;-72
2023/02/10 09:20:58;;;;;;;22.77;8.18;;;2.50;99.90;;;;;;4996574;28;20023;-72
2023/02/10 09:23:24;;;;;;;22.10;8.15;;;2.60;99.90;;;;;;4996427;28;20034;-72
2023/02/10 09:25:57;;;;;;;17.48;8.35;;;2.60;99.90;;;;;;4972903;28;20053;-71
2023/02/10 09:28:23;;;;;;;26.02;11.02;;;2.70;99.90;;;;;;5012417;28;20030;-71
2023/02/10 09:30:49;;;;;;;21.55;10.05;;;2.80;99.90;;;;;;4995695;28;20481;-72
2023/02/10 09:33:15;;;;;;;22.70;8.65;;;2.90;99.90;;;;;;4978573;28;20057;-72
2023/02/10 09:35:41;;;;;;;23.65;10.13;;;2.90;99.90;;;;;;4974943;28;20129;-72
2023/02/10 09:38:08;;;;;;;22.80;8.95;;;3.10;99.90;;;;;;4994010;28;20242;-72
2023/02/10 09:40:46;;;;;;;22.17;8.63;;;3.10;99.90;;;;;;5002706;28;20040;-72
2023/02/10 09:43:29;;;;;;;21.35;8.85;;;3.20;99.90;;;;;;5000931;28;20037;-72
2023/02/10 09:46:03;;;;;;;19.00;7.82;;;3.20;99.90;;;;;;5010437;28;20092;-72
2023/02/10 09:48:34;;;;;;;17.05;7.63;;;3.20;99.90;;;;;;5004511;28;20105;-72
2023/02/10 09:51:05;;;;;;;;;;;3.20;99.90;;;;;;5000752;28;20073;-74
2023/02/10 09:53:31;;;;;;;23.30;8.88;;;3.30;99.90;;;;;;4990630;28;19922;-72
2023/02/10 09:56:02;;;;;;;24.55;9.63;;;3.40;99.90;;;;;;4992039;28;20022;-71
2023/02/10 09:58:42;;;;;;;;;;;3.40;99.90;;;;;;4999824;28;20038;-72
2023/02/10 10:01:18;;;;;;;17.65;7.78;;;3.50;99.90;;;;;;4995609;28;20416;-72
2023/02/10 10:03:44;;;;;;;18.98;9.05;;;3.50;99.90;;;;;;5004545;28;20692;-72
2023/02/10 10:06:12;;;;;;;20.50;9.05;;;3.60;99.90;;;;;;4997826;28;20042;-71
2023/02/10 10:09:13;;;;;;;16.92;7.35;;;3.60;99.90;;;;;;4991231;28;20096;-72
2023/02/10 10:11:38;;;;;;;17.30;7.72;;;3.70;99.90;;;;;;4970836;28;20041;-72
2023/02/10 10:14:05;;;;;;;24.63;9.73;;;3.70;99.90;;;;;;4993009;28;20410;-72
2023/02/10 10:16:52;;;;;;;20.63;9.75;;;3.80;99.90;;;;;;5004134;28;20026;-72
2023/02/10 10:19:42;;;;;;;16.45;7.65;;;3.80;99.90;;;;;;4995470;28;20041;-71
2023/02/10 10:22:48;;;;;;;18.40;7.65;;;3.90;99.90;;;;;;5021298;28;20081;-72
2023/02/10 10:25:35;;;;;;;20.60;8.38;;;4.00;99.90;;;;;;5007225;28;20511;-71
2023/02/10 10:28:20;;;;;;;17.20;7.57;;;4.10;99.90;;;;;;4998810;28;20447;-72
2023/02/10 10:31:17;;;;;;;17.05;7.05;;;4.20;99.90;;;;;;4996770;28;20041;-72
2023/02/10 10:33:54;;;;;;;17.15;7.55;;;4.20;99.90;;;;;;4981918;28;20033;-72
2023/02/10 10:36:33;;;;;;;15.25;8.15;;;4.20;99.90;;;;;;5000822;28;20034;-71
2023/02/10 10:39:21;;;;;;;17.90;7.28;;;4.30;99.90;;;;;;4972553;28;20042;-73
2023/02/10 10:41:48;;;;;;;17.08;7.45;;;4.40;99.90;;;;;;4957334;28;20045;-72
2023/02/10 10:44:16;;;;;;;18.17;8.10;;;4.40;99.90;;;;;;4989065;28;20655;-72
2023/02/10 10:46:50;;;;;;;17.65;7.35;;;4.50;99.90;;;;;;4973454;28;20060;-72
2023/02/10 10:49:16;;;;;;;16.02;8.00;;;4.60;99.90;;;;;;4986607;28;20027;-72
2023/02/10 10:51:42;;;;;;;17.58;7.85;;;4.60;99.90;;;;;;4990435;28;20132;-72
2023/02/10 10:54:18;;;;;;;18.60;7.43;;;4.70;99.90;;;;;;4989682;28;20518;-72
2023/02/10 10:56:43;;;;;;;20.25;7.30;;;4.80;99.90;;;;;;4971022;28;20039;-73
2023/02/10 10:59:30;;;;;;;21.83;8.00;;;4.80;99.90;;;;;;4990021;28;20038;-72
2023/02/10 11:01:55;;;;;;;22.25;8.65;;;4.80;99.90;;;;;;4988452;28;20140;-72
2023/02/10 11:04:28;;;;;;;17.92;8.05;;;4.90;99.90;;;;;;4972120;28;20042;-72
2023/02/10 11:06:57;;;;;;;20.02;7.93;;;4.90;99.90;;;;;;4989208;28;20154;-72
2023/02/10 11:09:22;;;;;;;19.23;7.63;;;5.00;99.90;;;;;;4988114;28;20031;-72
2023/02/10 11:11:49;;;;;;;23.90;8.45;;;5.00;99.90;;;;;;4988453;28;20116;-72
2023/02/10 11:14:20;;;;;;;20.33;7.32;;;5.20;99.90;;;;;;5003276;28;20027;-72
2023/02/10 11:16:50;;;;;;;13.13;6.30;;;5.50;99.90;;;;;;4990383;28;20059;-72
2023/02/10 11:19:24;;;;;;;16.63;8.15;;;5.90;99.90;;;;;;4970799;28;20165;-73
2023/02/10 11:21:50;;;;;;;22.13;7.93;;;6.20;99.90;;;;;;4972494;28;20127;-71
2023/02/10 11:24:27;;;;;;;19.20;7.18;;;6.40;99.90;;;;;;4990059;28;20029;-72
2023/02/10 11:27:00;;;;;;;17.85;6.60;;;6.30;99.90;;;;;;5004014;28;20069;-73
2023/02/10 11:29:30;;;;;;;19.50;6.90;;;6.30;99.90;;;;;;4970479;28;20030;-73
2023/02/10 11:31:56;;;;;;;22.23;7.47;;;6.10;99.90;;;;;;4970798;28;20030;-72
2023/02/10 11:34:31;;;;;;;23.73;7.97;;;6.20;99.90;;;;;;4989145;28;20386;-72
2023/02/10 11:37:08;;;;;;;18.67;7.20;;;6.40;99.90;;;;;;4987366;28;20037;-72
2023/02/10 11:39:37;;;;;;;18.00;7.63;;;6.70;99.90;;;;;;4969761;28;20487;-72
2023/02/10 11:42:20;;;;;;;14.95;6.25;;;6.90;99.90;;;;;;4998093;28;20038;-74
2023/02/10 11:45:23;;;;;;;19.85;7.25;;;6.80;99.90;;;;;;4972839;28;20026;-73
2023/02/10 11:48:19;;;;;;;20.83;7.68;;;6.70;99.90;;;;;;4990590;28;20034;-73
2023/02/10 11:50:45;;;;;;;19.00;7.28;;;6.50;99.90;;;;;;4986840;28;20495;-73
2023/02/10 11:53:38;;;;;;;15.55;6.97;;;6.40;99.90;;;;;;4988917;28;20054;-73
2023/02/10 11:56:15;;;;;;;19.35;7.50;;;6.40;99.90;;;;;;4993934;28;20450;-73
2023/02/10 11:59:07;;;;;;;18.15;7.05;;;6.40;99.90;;;;;;4978398;28;20088;-73
2023/02/10 12:01:39;;;;;;;18.48;7.38;;;6.30;99.90;;;;;;4993544;28;20054;-72
2023/02/10 12:04:23;;;;;;;18.25;8.32;;;6.20;99.90;;;;;;4994605;28;20050;-72
2023/02/10 12:07:20;;;;;;;20.15;7.70;;;6.20;99.90;;;;;;5005225;28;20076;-72
2023/02/10 12:10:01;;;;;;;19.38;8.15;;;6.20;99.90;;;;;;4985323;28;20042;-72
2023/02/10 12:12:42;;;;;;;23.80;8.23;;;6.30;99.90;;;;;;4984421;28;20573;-72
2023/02/10 12:15:31;;;;;;;25.48;9.80;;;6.30;99.90;;;;;;4984026;28;20106;-72
2023/02/10 12:18:34;;;;;;;21.83;8.73;;;6.40;99.90;;;;;;4999433;28;20054;-72
2023/02/10 12:21:34;;;;;;;26.42;10.07;;;6.40;99.90;;;;;;4983646;28;20042;-73
2023/02/10 12:24:34;;;;;;;20.90;8.52;;;6.30;99.90;;;;;;4983540;28;20062;-72
2023/02/10 12:27:13;;;;;;;24.15;9.35;;;6.40;99.90;;;;;;4988646;28;20102;-73
2023/02/10 12:29:45;;;;;;;24.60;7.93;;;6.40;99.90;;;;;;4985682;28;20057;-72
2023/02/10 12:32:21;;;;;;;24.60;9.43;;;6.50;99.90;;;;;;4986908;28;20030;-72
2023/02/10 12:35:24;;;;;;;21.63;8.70;;;6.50;99.90;;;;;;4983992;28;20041;-72
2023/02/10 12:38:26;;;;;;;23.33;8.65;;;6.60;99.90;;;;;;4985916;28;20035;-72
2023/02/10 12:41:07;;;;;;;24.13;9.50;;;6.70;99.90;;;;;;4968103;28;20073;-72
2023/02/10 12:43:59;;;;;;;26.52;9.73;;;6.80;99.90;;;;;;4988179;28;20030;-72
2023/02/10 12:46:45;;;;;;;26.23;8.55;;;6.80;99.90;;;;;;4983318;28;20046;-73
2023/02/10 12:50:01;;;;;;;25.85;9.85;;;6.80;99.90;;;;;;4984948;28;20030;-72
2023/02/10 12:52:41;;;;;;;24.25;9.23;;;6.80;99.90;;;;;;4968901;28;20039;-72
2023/02/10 12:55:20;;;;;;;26.70;9.55;;;6.90;99.90;;;;;;4987119;28;20046;-73
2023/02/10 12:58:18;;;;;;;23.08;9.10;;;6.90;99.90;;;;;;4969287;28;20097;-72
2023/02/10 13:00:50;;;;;;;21.50;8.70;;;6.90;99.90;;;;;;4964406;28;20116;-72
2023/02/10 13:03:20;;;;;;;34.30;10.48;;;6.90;99.90;;;;;;4985378;28;20041;-72
2023/02/10 13:05:54;;;;;;;27.75;9.93;;;7.00;99.90;;;;;;5000271;28;20104;-73